Little Chicago, Wisconsin
Current Conditions -  °F | °C
As of 1:54 AM on Friday 28 Nov 2014 (Local Time) from KAUW Reporting Station
Overcast Overcast  
Wind Chill:   Ceiling: 10000
Heat Index:   Visibility: 10mi
Dew Point:   Wind: 0mph
Humidity: 84%   Direction: NA
Pressure: 30.27"   Gusts: NA
Location:  44.9438°N, 89.8335°W
Report Text: KAUW 280754Z AUTO 00000KT 10SM OVC100 M15/M17 A3027 RMK AO2 SLP282 T11501172
Loading
Personal Weather Stations






























Interactive Weather Map New forecast layout! Learn more

10-Day Weather Forecast

Advertisements
Track Severe Weather on mobile